Time;durP1;ratioP1;P1;durP2;ratioP2;P2;SDS_P1;SDS_P2;PMS_P1;PMS_P2;Temp;Humidity;BMP_temperature;BMP_pressure;BME280_temperature;BME280_humidity;BME280_pressure;Samples;Min_cycle;Max_cycle;Signal;HPM_P1;HPM_P2
2022/08/19 00:01:29;;;;;;;9.80;3.50;;;;;;;19.46;71.83;98655.27;104637;1272;74605;-24
2022/08/19 00:04:00;;;;;;;6.00;3.30;;;;;;;19.50;71.26;98655.16;104686;1275;61751;-24
2022/08/19 00:06:28;;;;;;;8.10;3.40;;;;;;;19.32;71.31;98655.09;104597;1271;61761;-24
2022/08/19 00:08:56;;;;;;;8.80;4.00;;;;;;;19.07;71.92;98650.01;104429;1271;76574;-24
2022/08/19 00:11:23;;;;;;;8.10;4.70;;;;;;;18.76;73.03;98649.08;104566;1271;76772;-24
2022/08/19 00:13:52;;;;;;;11.20;4.70;;;;;;;18.48;74.28;98645.40;104606;1274;75336;-24
2022/08/19 00:16:23;;;;;;;7.80;3.30;;;;;;;18.38;74.55;98641.64;104675;1271;62519;-24
2022/08/19 00:18:55;;;;;;;6.40;3.30;;;;;;;18.85;73.47;98641.63;104328;1274;62751;-24
2022/08/19 00:21:23;;;;;;;8.00;4.30;;;;;;;19.30;71.52;98640.01;104626;1271;75427;-24
2022/08/19 00:23:51;;;;;;;12.60;4.30;;;;;;;19.29;71.56;98634.92;104544;1271;75729;-24
2022/08/19 00:26:19;;;;;;;7.40;3.60;;;;;;;19.22;71.54;98634.59;104653;1271;74146;-24
2022/08/19 00:28:46;;;;;;;9.40;4.00;;;;;;;19.04;71.96;98631.60;104610;1274;62763;-24
2022/08/19 00:31:13;;;;;;;8.70;4.50;;;;;;;18.79;72.54;98633.02;104669;1272;63435;-24
2022/08/19 00:33:40;;;;;;;8.20;4.40;;;;;;;18.53;73.33;98631.75;104623;1274;76635;-24
2022/08/19 00:36:09;;;;;;;6.10;3.70;;;;;;;18.33;74.47;98633.04;104639;1271;76538;-24
2022/08/19 00:38:37;;;;;;;6.90;3.70;;;;;;;18.63;74.31;98635.73;104699;1274;74321;-24
2022/08/19 00:41:05;;;;;;;6.90;4.30;;;;;;;19.11;72.51;98639.20;104449;1272;63141;-24
2022/08/19 00:43:32;;;;;;;5.10;3.50;;;;;;;19.16;72.06;98637.70;104400;1274;62860;-24
2022/08/19 00:45:59;;;;;;;5.00;3.50;;;;;;;19.05;71.67;98640.14;104611;1271;76619;-24
2022/08/19 00:48:26;;;;;;;5.40;3.50;;;;;;;18.78;72.34;98640.55;104518;1274;75995;-24
2022/08/19 00:50:54;;;;;;;9.50;4.90;;;;;;;18.49;73.57;98642.09;104614;1271;75343;-24
2022/08/19 00:53:22;;;;;;;10.50;3.60;;;;;;;18.24;74.22;98641.94;104739;1274;62804;-24
2022/08/19 00:55:50;;;;;;;4.70;2.80;;;;;;;18.05;74.69;98645.77;104661;1271;63054;-24
2022/08/19 00:58:20;;;;;;;5.90;2.90;;;;;;;18.42;74.67;98651.91;104616;1271;76522;-25
2022/08/19 01:00:47;;;;;;;3.30;2.80;;;;;;;18.85;73.09;98653.05;104596;1271;75324;-24
2022/08/19 01:03:16;;;;;;;7.60;3.50;;;;;;;18.87;72.46;98651.09;104629;1274;75400;-24
2022/08/19 01:05:45;;;;;;;8.00;3.60;;;;;;;18.67;72.65;98649.92;104698;1274;63062;-24
2022/08/19 01:08:13;;;;;;;9.20;4.30;;;;;;;18.42;72.97;98643.88;104640;1274;62990;-24
2022/08/19 01:10:43;;;;;;;8.40;3.70;;;;;;;18.16;73.45;98645.57;104467;1274;74807;-25
2022/08/19 01:13:10;;;;;;;11.90;3.50;;;;;;;17.87;74.32;98643.64;104389;1274;76414;-24
2022/08/19 01:15:43;;;;;;;9.70;2.60;;;;;;;17.60;75.40;98650.84;104533;1274;73405;-24
2022/08/19 01:18:12;;;;;;;10.30;3.50;;;;;;;17.96;75.62;98652.83;104387;1274;61877;-24
2022/08/19 01:20:40;;;;;;;9.20;3.30;;;;;;;18.42;74.13;98651.95;104662;1274;62811;-24
2022/08/19 01:23:07;;;;;;;4.70;3.20;;;;;;;18.41;73.65;98657.82;104655;1274;76855;-24
2022/08/19 01:25:51;;;;;;;10.00;3.40;;;;;;;18.16;73.85;98661.85;104621;1274;76137;-24
2022/08/19 01:28:21;;;;;;;4.90;3.30;;;;;;;17.80;75.19;98666.66;104776;1274;74432;-24
2022/08/19 01:31:14;;;;;;;6.70;3.40;;;;;;;17.47;76.77;98669.36;104700;1274;61154;-24
2022/08/19 01:33:55;;;;;;;7.00;3.10;;;;;;;17.30;77.36;98669.90;104744;1274;62163;-24
2022/08/19 01:36:30;;;;;;;10.50;3.90;;;;;;;17.88;76.35;98675.37;104773;1274;75663;-24
2022/08/19 01:38:57;;;;;;;11.60;3.50;;;;;;;18.37;74.31;98675.66;104722;1274;77018;-24
2022/08/19 01:41:24;;;;;;;8.30;4.60;;;;;;;18.37;73.72;98678.13;104918;1274;74809;-24
2022/08/19 01:43:52;;;;;;;5.60;3.70;;;;;;;18.13;73.93;98676.58;104799;1272;63153;-24
2022/08/19 01:46:39;;;;;;;13.00;4.30;;;;;;;17.82;74.87;98674.96;104948;1274;61176;-24
2022/08/19 01:49:07;;;;;;;6.00;3.50;;;;;;;17.55;75.55;98675.07;105024;1274;76741;-24
2022/08/19 01:51:35;;;;;;;4.40;2.50;;;;;;;17.34;76.14;98673.83;104831;1274;77172;-24
2022/08/19 01:54:09;;;;;;;6.10;2.70;;;;;;;17.72;76.16;98670.13;104663;1274;74374;-24
2022/08/19 01:56:38;;;;;;;6.60;2.70;;;;;;;18.19;74.65;98668.35;104704;1274;62829;-24
2022/08/19 01:59:10;;;;;;;5.40;3.30;;;;;;;18.22;74.03;98670.65;104846;1274;63325;-24
2022/08/19 02:01:37;;;;;;;5.60;3.10;;;;;;;18.05;74.31;98673.95;104656;1274;76308;-24
2022/08/19 02:04:05;;;;;;;7.40;3.90;;;;;;;17.80;74.85;98674.82;104573;1274;77749;-24
2022/08/19 02:06:32;;;;;;;10.00;3.70;;;;;;;17.54;75.90;98678.77;104565;1274;75231;-24
2022/08/19 02:09:00;;;;;;;4.70;2.80;;;;;;;17.34;76.72;98681.42;104667;1274;64411;-25
2022/08/19 02:11:31;;;;;;;4.40;2.90;;;;;;;17.75;76.42;98684.02;104639;1274;62080;-24
2022/08/19 02:13:58;;;;;;;7.30;3.00;;;;;;;18.26;74.42;98686.46;104458;1274;76707;-24
2022/08/19 02:16:25;;;;;;;4.60;2.80;;;;;;;18.30;73.84;98684.79;104612;1274;76709;-24
2022/08/19 02:18:52;;;;;;;11.30;3.50;;;;;;;18.14;73.80;98688.80;104930;1274;75408;-24
2022/08/19 02:21:20;;;;;;;7.80;3.70;;;;;;;17.92;74.23;98692.90;104884;1274;63094;-24
2022/08/19 02:23:48;;;;;;;8.90;3.70;;;;;;;17.68;74.80;98696.40;104748;1274;63042;-24
2022/08/19 02:26:15;;;;;;;12.20;3.00;;;;;;;17.48;75.72;98692.81;104822;1274;76532;-24
2022/08/19 02:28:42;;;;;;;4.20;2.90;;;;;;;17.81;75.78;98694.54;104843;1274;77023;-24
2022/08/19 02:31:10;;;;;;;7.90;3.90;;;;;;;18.19;74.31;98694.00;104558;1273;75583;-24
2022/08/19 02:33:38;;;;;;;7.50;3.80;;;;;;;18.28;73.63;98695.75;104679;1274;61173;-24
2022/08/19 02:36:06;;;;;;;7.00;3.60;;;;;;;18.12;73.60;98695.70;104611;1274;62125;-25
2022/08/19 02:38:34;;;;;;;7.70;3.60;;;;;;;17.81;73.98;98702.06;104698;1274;76657;-24
2022/08/19 02:41:04;;;;;;;7.10;4.20;;;;;;;17.49;75.56;98700.05;104735;1274;77496;-24
2022/08/19 02:43:32;;;;;;;5.80;3.30;;;;;;;17.28;76.60;98699.81;104579;1274;75412;-24
2022/08/19 02:46:00;;;;;;;8.20;3.70;;;;;;;17.62;76.17;98693.10;104735;1274;61234;-24
2022/08/19 02:48:28;;;;;;;11.20;4.30;;;;;;;17.99;74.83;98687.26;104587;1274;62736;-24
2022/08/19 02:50:55;;;;;;;21.20;7.20;;;;;;;18.08;74.43;98685.55;104571;1271;76554;-24
2022/08/19 02:53:23;;;;;;;57.40;31.80;;;;;;;17.83;75.15;98685.06;104666;1274;77250;-24
2022/08/19 02:55:50;;;;;;;32.60;19.30;;;;;;;17.73;75.58;98685.98;104432;1274;75442;-24
2022/08/19 02:58:18;;;;;;;35.80;20.50;;;;;;;17.60;75.74;98680.30;104620;1274;62128;-24
2022/08/19 03:00:50;;;;;;;13.10;6.10;;;;;;;17.39;76.87;98687.82;104804;1274;61811;-24
2022/08/19 03:03:17;;;;;;;8.70;4.80;;;;;;;17.84;75.90;98692.86;104774;1274;76617;-24
2022/08/19 03:05:44;;;;;;;11.60;5.20;;;;;;;18.24;73.97;98691.84;105072;1273;77011;-24
2022/08/19 03:08:23;;;;;;;24.30;16.20;;;;;;;18.24;73.70;98693.98;104638;1274;75800;-24
2022/08/19 03:10:52;;;;;;;24.70;14.90;;;;;;;17.95;74.93;98694.89;104655;1271;63132;-24
2022/08/19 03:13:19;;;;;;;26.50;14.60;;;;;;;17.74;75.42;98696.80;104686;1274;61970;-24
2022/08/19 03:15:47;;;;;;;41.30;20.50;;;;;;;17.55;76.14;98694.46;104668;1274;76598;-24
2022/08/19 03:18:14;;;;;;;36.30;18.50;;;;;;;17.42;76.35;98695.23;104601;1274;77107;-24
2022/08/19 03:20:45;;;;;;;57.00;27.20;;;;;;;17.89;75.41;98698.11;104612;1271;75468;-24
2022/08/19 03:23:12;;;;;;;67.10;33.70;;;;;;;18.40;73.51;98696.58;104636;1272;62783;-24
2022/08/19 03:25:41;;;;;;;53.50;29.80;;;;;;;18.47;72.80;98696.27;104818;1274;62765;-24
2022/08/19 03:28:12;;;;;;;29.70;17.60;;;;;;;18.28;73.14;98696.99;104748;1274;74508;-24
2022/08/19 03:30:40;;;;;;;58.30;30.00;;;;;;;18.00;74.30;98700.43;104756;1274;76988;-24
2022/08/19 03:33:09;;;;;;;98.20;45.30;;;;;;;17.80;75.45;98703.82;104772;1272;74068;-24
2022/08/19 03:35:44;;;;;;;49.80;24.10;;;;;;;17.81;75.60;98699.63;104755;1274;62372;-24
2022/08/19 03:38:11;;;;;;;25.50;14.00;;;;;;;18.44;74.05;98698.27;104725;1271;61162;-24
2022/08/19 03:40:38;;;;;;;21.40;12.30;;;;;;;19.13;71.88;98700.32;104620;1274;75710;-24
2022/08/19 03:43:05;;;;;;;13.20;8.40;;;;;;;19.38;70.73;98703.59;104721;1272;77021;-24
2022/08/19 03:45:32;;;;;;;26.00;8.90;;;;;;;19.41;69.93;98708.89;104560;1274;74123;-24
2022/08/19 03:48:00;;;;;;;66.40;29.40;;;;;;;19.27;69.57;98711.48;104662;1274;62100;-24
2022/08/19 03:50:27;;;;;;;37.60;19.40;;;;;;;19.07;70.42;98714.59;104692;1272;61775;-24
2022/08/19 03:52:54;;;;;;;20.70;9.30;;;;;;;19.01;70.54;98716.07;104594;1274;75500;-24
2022/08/19 03:55:21;;;;;;;10.10;5.30;;;;;;;18.94;71.05;98719.52;104680;1274;77148;-25
2022/08/19 03:57:48;;;;;;;8.20;4.40;;;;;;;19.43;70.48;98721.60;104657;1272;73050;-24
2022/08/19 04:00:16;;;;;;;7.30;4.60;;;;;;;20.11;68.81;98718.42;104688;1271;63345;-24
2022/08/19 04:02:43;;;;;;;17.80;6.20;;;;;;;20.23;66.61;98711.54;104679;1274;61966;-24
2022/08/19 04:05:28;;;;;;;10.90;6.90;;;;;;;19.87;67.50;98720.92;104748;1274;76753;-24
2022/08/19 04:07:58;;;;;;;40.50;22.40;;;;;;;19.32;69.36;98723.35;104461;1272;77103;-24
2022/08/19 04:10:28;;;;;;;43.00;25.40;;;;;;;19.15;70.29;98727.60;104580;1271;75876;-24
2022/08/19 04:12:55;;;;;;;24.80;9.80;;;;;;;19.04;70.79;98731.71;104749;1274;62571;-24
2022/08/19 04:15:22;;;;;;;15.20;7.80;;;;;;;19.00;70.87;98729.73;104624;1272;62765;-24
2022/08/19 04:17:49;;;;;;;7.40;5.70;;;;;;;19.05;70.89;98728.89;104628;1272;76543;-24
2022/08/19 04:20:16;;;;;;;23.60;10.80;;;;;;;19.29;70.47;98729.66;104625;1274;77018;-25
2022/08/19 04:22:42;;;;;;;38.30;23.40;;;;;;;19.90;68.27;98725.93;104727;1273;74754;-24
2022/08/19 04:25:10;;;;;;;30.90;21.00;;;;;;;20.43;65.89;98725.54;104631;1272;61601;-24
2022/08/19 04:27:37;;;;;;;23.20;17.10;;;;;;;20.79;65.20;98719.41;104631;1271;61095;-24
2022/08/19 04:30:05;;;;;;;29.60;16.20;;;;;;;20.92;64.56;98714.23;104601;1274;77036;-24
2022/08/19 04:32:32;;;;;;;30.10;21.50;;;;;;;20.96;64.37;98711.39;104617;1274;77350;-24
2022/08/19 04:34:59;;;;;;;17.50;13.40;;;;;;;21.04;64.76;98713.52;104581;1274;75533;-24
2022/08/19 04:37:32;;;;;;;15.00;8.40;;;;;;;21.08;64.74;98712.75;104676;1274;61558;-24
2022/08/19 04:42:49;;;;;;;23.40;14.70;;;;;;;20.37;66.37;98724.77;104643;1274;76291;-24
2022/08/19 04:45:16;;;;;;;50.60;29.80;;;;;;;20.22;67.44;98726.86;104814;1274;76772;-25
2022/08/19 04:47:44;;;;;;;23.00;16.00;;;;;;;20.29;67.37;98718.96;104693;1273;75203;-25
2022/08/19 04:50:25;;;;;;;27.70;13.60;;;;;;;20.42;67.21;98713.52;104638;1274;62161;-23
2022/08/19 04:52:52;;;;;;;27.20;12.30;;;;;;;20.12;67.90;98714.36;104524;1274;62175;-26
2022/08/19 04:55:20;;;;;;;17.60;7.40;;;;;;;20.16;68.19;98714.52;104741;1274;76556;-23
2022/08/19 04:57:47;;;;;;;16.20;7.40;;;;;;;20.43;67.21;98708.69;104633;1274;77086;-24
2022/08/19 05:00:14;;;;;;;14.60;7.30;;;;;;;20.64;65.96;98704.98;104690;1274;73125;-24
2022/08/19 05:02:41;;;;;;;19.90;7.60;;;;;;;20.73;66.09;98701.80;104644;1274;62010;-25
2022/08/19 05:05:08;;;;;;;15.70;7.90;;;;;;;21.07;65.37;98700.50;104605;1274;62778;-24
2022/08/19 05:07:36;;;;;;;13.50;7.80;;;;;;;21.13;65.14;98699.80;104837;1274;75628;-25
2022/08/19 05:10:04;;;;;;;25.90;13.40;;;;;;;21.40;64.59;98696.64;104662;1273;77003;-24
2022/08/19 05:12:31;;;;;;;22.10;12.20;;;;;;;21.03;65.01;98697.51;104492;1274;75231;-25
2022/08/19 05:14:59;;;;;;;30.10;17.10;;;;;;;21.23;65.03;98702.21;104640;1274;61777;-23
2022/08/19 05:17:26;;;;;;;30.40;16.90;;;;;;;21.58;64.19;98703.80;104669;1274;63141;-24
2022/08/19 05:22:46;;;;;;;17.80;12.60;;;;;;;21.50;64.06;98705.56;104606;1274;75932;-24
2022/08/19 05:25:19;;;;;;;16.00;9.60;;;;;;;21.57;64.15;98704.48;104654;1274;74340;-23
2022/08/19 05:27:46;;;;;;;14.80;8.10;;;;;;;21.59;64.27;98706.20;104619;1274;62138;-23
2022/08/19 05:30:14;;;;;;;22.90;13.50;;;;;;;21.33;65.46;98708.85;105044;1274;61182;-23
2022/08/19 05:32:41;;;;;;;15.70;8.00;;;;;;;21.48;64.36;98709.35;104711;1274;76670;-23
2022/08/19 05:35:09;;;;;;;14.20;7.90;;;;;;;21.88;64.32;98713.88;104731;1274;76111;-24
2022/08/19 05:37:38;;;;;;;16.80;9.80;;;;;;;21.80;63.99;98715.20;104807;1273;74332;-24
2022/08/19 05:40:07;;;;;;;10.50;6.10;;;;;;;21.92;64.33;98726.45;104809;1272;63198;-24
2022/08/19 05:42:34;;;;;;;19.90;8.70;;;;;;;21.66;63.64;98728.85;104800;1273;62333;-25
2022/08/19 05:45:02;;;;;;;17.40;11.70;;;;;;;21.77;64.24;98730.66;104669;1274;75284;-23
2022/08/19 05:47:29;;;;;;;16.20;9.30;;;;;;;21.86;63.70;98728.06;104387;1274;75966;-25
2022/08/19 05:49:56;;;;;;;14.00;7.20;;;;;;;21.55;64.29;98730.00;104623;1274;75638;-22
2022/08/19 05:52:23;;;;;;;18.20;9.50;;;;;;;21.97;63.70;98727.98;104638;1274;62517;-23
2022/08/19 05:54:54;;;;;;;21.20;10.30;;;;;;;21.42;64.40;98727.92;104679;1274;61947;-24
2022/08/19 05:57:23;;;;;;;13.10;5.60;;;;;;;21.49;64.78;98730.77;104682;1274;76565;-24
2022/08/19 05:59:51;;;;;;;11.10;6.10;;;;;;;21.57;64.58;98730.84;104478;1274;75896;-23
2022/08/19 06:02:28;;;;;;;22.90;6.10;;;;;;;21.66;64.70;98733.55;104693;1274;74371;-24
2022/08/19 06:04:55;;;;;;;11.80;6.40;;;;;;;21.76;64.50;98738.52;104442;1274;61765;-24
2022/08/19 06:07:22;;;;;;;9.60;5.20;;;;;;;21.74;64.95;98740.48;104823;1274;62063;-24
2022/08/19 06:09:50;;;;;;;13.60;6.50;;;;;;;21.81;64.81;98737.79;104995;1274;76584;-22
2022/08/19 06:12:31;;;;;;;16.40;6.40;;;;;;;21.72;64.68;98740.57;104983;1274;76001;-23
2022/08/19 06:14:59;;;;;;;10.40;5.60;;;;;;;21.65;64.40;98738.48;104600;1274;74512;-24
2022/08/19 06:17:29;;;;;;;16.90;5.70;;;;;;;21.63;64.60;98742.84;104480;1274;63112;-23
2022/08/19 06:19:58;;;;;;;11.90;7.90;;;;;;;21.85;64.32;98743.73;104611;1274;62957;-23
2022/08/19 06:22:26;;;;;;;17.40;7.20;;;;;;;22.07;64.00;98740.23;104728;1272;76531;-23
2022/08/19 06:24:54;;;;;;;14.70;11.10;;;;;;;21.88;63.11;98736.97;104710;1274;76945;-23
2022/08/19 06:27:22;;;;;;;11.20;7.60;;;;;;;22.05;63.16;98736.27;104634;1274;75467;-24
2022/08/19 06:29:49;;;;;;;10.20;5.50;;;;;;;22.18;63.49;98737.14;104621;1274;62117;-23
2022/08/19 06:32:17;;;;;;;8.00;5.10;;;;;;;22.47;63.38;98736.13;104653;1272;63430;-23
2022/08/19 06:34:45;;;;;;;6.10;4.20;;;;;;;22.78;62.39;98728.39;104675;1274;76939;-23
2022/08/19 06:37:12;;;;;;;10.50;5.40;;;;;;;22.64;62.63;98723.61;104640;1274;76965;-23
2022/08/19 06:39:40;;;;;;;13.70;4.90;;;;;;;22.88;62.40;98724.64;104671;1274;75360;-23
2022/08/19 06:42:11;;;;;;;9.20;5.60;;;;;;;23.10;62.73;98726.31;104687;1275;62796;-23
2022/08/19 06:44:40;;;;;;;15.60;6.40;;;;;;;23.24;61.27;98728.40;104595;1274;63063;-23
2022/08/19 06:47:12;;;;;;;12.90;7.70;;;;;;;23.54;60.61;98733.45;104566;1274;76534;-23
2022/08/19 06:49:49;;;;;;;8.90;6.10;;;;;;;23.86;59.40;98736.91;104479;1274;77032;-23
2022/08/19 06:52:16;;;;;;;20.50;8.40;;;;;;;24.11;58.82;98741.92;104620;1274;74430;-23
2022/08/19 06:54:43;;;;;;;13.10;5.80;;;;;;;24.24;58.74;98750.42;104753;1274;61996;-23
2022/08/19 06:57:23;;;;;;;12.30;5.40;;;;;;;24.36;58.15;98751.35;104837;1271;61975;-23
2022/08/19 06:59:50;;;;;;;13.70;5.00;;;;;;;24.11;58.35;98758.09;104713;1274;75531;-23
2022/08/19 07:02:18;;;;;;;8.40;4.70;;;;;;;24.15;58.03;98760.45;105072;1274;75747;-23
2022/08/19 07:04:45;;;;;;;12.20;5.30;;;;;;;24.31;58.47;98755.73;104616;1274;75466;-23
2022/08/19 07:07:14;;;;;;;6.20;4.20;;;;;;;24.56;57.96;98754.15;104621;1274;62085;-23
2022/08/19 07:09:48;;;;;;;11.00;5.00;;;;;;;24.78;57.83;98753.23;104689;1274;62887;-23
2022/08/19 07:12:34;;;;;;;17.30;4.20;;;;;;;24.82;57.57;98753.38;104738;1274;75805;-23
2022/08/19 07:15:05;;;;;;;5.30;3.80;;;;;;;24.88;56.88;98756.73;104649;1274;77120;-23
2022/08/19 07:17:32;;;;;;;8.80;3.90;;;;;;;24.99;57.61;98760.73;105063;1274;75422;-23
2022/08/19 07:20:01;;;;;;;7.70;3.90;;;;;;;25.04;56.73;98757.38;104809;1274;62501;-23
2022/08/19 07:22:36;;;;;;;8.30;3.70;;;;;;;25.11;55.74;98754.05;104756;1272;62004;-23
2022/08/19 07:25:04;;;;;;;7.50;3.60;;;;;;;25.22;56.06;98756.36;104805;1274;75511;-23
2022/08/19 07:27:31;;;;;;;9.60;3.50;;;;;;;25.28;55.66;98758.27;104703;1274;76750;-22
2022/08/19 07:29:59;;;;;;;9.40;3.50;;;;;;;25.45;55.75;98759.82;104702;1274;75504;-23
2022/08/19 07:32:26;;;;;;;8.50;3.50;;;;;;;25.50;54.94;98760.00;104600;1274;61759;-23
2022/08/19 07:34:54;;;;;;;9.40;3.70;;;;;;;25.51;53.04;98763.91;104716;1274;63038;-23
2022/08/19 07:37:26;;;;;;;9.40;3.50;;;;;;;25.53;50.97;98762.73;104660;1272;76713;-23
2022/08/19 07:40:00;;;;;;;6.20;3.60;;;;;;;25.85;52.85;98769.33;104450;1274;77000;-22
2022/08/19 07:42:29;;;;;;;7.70;3.40;;;;;;;26.04;51.81;98772.36;104431;1271;75313;-23
2022/08/19 07:44:58;;;;;;;10.70;4.60;;;;;;;26.17;53.07;98774.11;104705;1274;61886;-23
2022/08/19 07:47:27;;;;;;;9.00;4.10;;;;;;;26.17;53.15;98772.29;104668;1274;63031;-23
2022/08/19 07:50:15;;;;;;;10.00;3.60;;;;;;;26.11;53.37;98765.31;104721;1272;76860;-23
2022/08/19 07:52:44;;;;;;;11.70;3.80;;;;;;;26.09;52.48;98771.90;104481;1276;77103;-23
2022/08/19 07:55:15;;;;;;;10.70;4.40;;;;;;;26.09;54.03;98777.98;104672;1272;75162;-23
2022/08/19 07:58:04;;;;;;;8.30;3.40;;;;;;;26.19;54.07;98773.67;104360;1274;62376;-23
2022/08/19 08:00:31;;;;;;;7.80;4.00;;;;;;;26.13;52.54;98773.88;104833;1274;61720;-23
2022/08/19 08:02:58;;;;;;;6.00;3.30;;;;;;;26.15;52.45;98776.19;104770;1274;76670;-22
2022/08/19 08:10:59;;;;;;;7.60;3.30;;;;;;;26.62;51.23;98774.54;104543;1274;63397;-23
2022/08/19 08:13:26;;;;;;;8.30;3.40;;;;;;;26.72;51.88;98779.05;104550;1272;61789;-23
2022/08/19 08:15:55;;;;;;;8.10;3.20;;;;;;;26.75;50.41;98774.98;104618;1274;75252;-23
2022/08/19 08:18:23;;;;;;;5.60;3.20;;;;;;;26.96;50.34;98777.64;104412;1274;76938;-23
2022/08/19 08:20:57;;;;;;;7.40;2.90;;;;;;;27.23;50.63;98775.97;104647;1274;75375;-23
2022/08/19 08:23:28;;;;;;;16.80;3.30;;;;;;;27.36;50.79;98770.35;105052;1274;61767;-23
2022/08/19 08:25:57;;;;;;;8.70;3.00;;;;;;;27.40;48.92;98767.01;104794;1274;62167;-24
2022/08/19 08:28:25;;;;;;;9.30;3.20;;;;;;;27.14;48.40;98771.33;104563;1276;76274;-23
2022/08/19 08:30:56;;;;;;;9.50;6.90;;;;;;;26.45;48.39;98772.31;104665;1274;76918;-23
2022/08/19 08:33:24;;;;;;;7.10;3.80;;;;;;;27.24;48.40;98773.21;104588;1274;75509;-23
2022/08/19 08:36:04;;;;;;;7.20;3.20;;;;;;;27.65;47.30;98771.61;104574;1274;62895;-23
2022/08/19 08:38:32;;;;;;;10.00;3.10;;;;;;;27.72;47.56;98774.04;104558;1276;63044;-23
2022/08/19 08:41:11;;;;;;;7.20;3.20;;;;;;;27.53;46.66;98779.25;104867;1274;76557;-24
2022/08/19 08:43:42;;;;;;;6.60;2.80;;;;;;;27.55;46.41;98773.49;104808;1275;76891;-23
2022/08/19 08:46:17;;;;;;;8.60;2.80;;;;;;;27.78;46.96;98772.73;104591;1274;75165;-24
2022/08/19 08:49:00;;;;;;;5.70;2.40;;;;;;;27.82;45.39;98770.07;104537;1275;61887;-23
2022/08/19 08:51:40;;;;;;;4.20;2.20;;;;;;;27.82;45.42;98767.77;104516;1273;61774;-23
2022/08/19 08:54:14;;;;;;;7.40;2.80;;;;;;;27.61;43.82;98763.12;104368;1274;75452;-23
2022/08/19 08:56:42;;;;;;;12.30;2.90;;;;;;;28.10;45.64;98762.96;104407;1277;77016;-23
2022/08/19 08:59:18;;;;;;;7.80;3.10;;;;;;;28.00;44.19;98762.78;104352;1276;75520;-23
2022/08/19 09:01:45;;;;;;;9.70;3.40;;;;;;;28.09;44.07;98763.43;104369;1277;61761;-23
2022/08/19 09:04:12;;;;;;;9.80;3.00;;;;;;;28.27;44.06;98758.81;104779;1274;63057;-23
2022/08/19 09:07:09;;;;;;;8.80;2.60;;;;;;;28.50;42.05;98755.34;104725;1274;75665;-24
2022/08/19 09:10:15;;;;;;;5.50;2.70;;;;;;;28.10;41.94;98752.42;104604;1274;75994;-24
2022/08/19 09:12:47;;;;;;;19.10;12.20;;;;;;;27.78;41.27;98747.96;104333;1274;75317;-23
2022/08/19 09:15:16;;;;;;;8.90;6.20;;;;;;;27.89;42.66;98748.23;104567;1274;62255;-25
2022/08/19 09:17:44;;;;;;;13.10;5.90;;;;;;;28.03;42.61;98747.02;104632;1274;61044;-23
2022/08/19 09:20:22;;;;;;;5.10;2.70;;;;;;;28.46;42.42;98746.19;104592;1274;75510;-24
2022/08/19 09:22:51;;;;;;;12.80;4.40;;;;;;;28.62;41.90;98740.04;104563;1274;77066;-23
2022/08/19 09:25:22;;;;;;;10.90;4.90;;;;;;;28.18;43.12;98745.36;104638;1274;75419;-23
2022/08/19 09:27:56;;;;;;;12.50;3.90;;;;;;;27.35;43.60;98753.29;104584;1278;61841;-23
2022/08/19 09:30:39;;;;;;;15.60;10.50;;;;;;;27.54;43.32;98752.85;104667;1274;61183;-24
2022/08/19 09:33:06;;;;;;;7.60;5.20;;;;;;;28.28;42.33;98748.38;104655;1274;75558;-23
2022/08/19 09:35:35;;;;;;;10.20;4.60;;;;;;;28.55;42.84;98749.98;104492;1274;76300;-23
2022/08/19 09:38:20;;;;;;;6.80;2.80;;;;;;;28.63;42.34;98740.38;104626;1274;74333;-23
2022/08/19 09:40:49;;;;;;;16.30;8.40;;;;;;;28.82;43.40;98735.44;104356;1276;62044;-23
2022/08/19 09:43:17;;;;;;;8.80;2.80;;;;;;;28.05;43.20;98734.35;104699;1274;61959;-23
2022/08/19 09:46:00;;;;;;;7.60;4.00;;;;;;;28.07;42.60;98735.91;104569;1275;75506;-24
2022/08/19 09:48:27;;;;;;;9.60;3.60;;;;;;;28.16;42.94;98734.56;104549;1274;76267;-23
2022/08/19 09:50:55;;;;;;;13.10;6.90;;;;;;;28.00;43.01;98734.95;104722;1274;75518;-23
2022/08/19 09:53:22;;;;;;;6.50;2.60;;;;;;;28.09;43.59;98737.31;104672;1271;62001;-23
2022/08/19 09:55:52;;;;;;;7.70;2.40;;;;;;;28.91;42.96;98732.41;104644;1274;62978;-24
2022/08/19 09:58:19;;;;;;;8.60;2.10;;;;;;;29.44;42.52;98734.54;104649;1274;74397;-23
2022/08/19 10:00:53;;;;;;;8.70;4.50;;;;;;;29.50;40.72;98729.70;104888;1271;77321;-23
2022/08/19 10:03:20;;;;;;;6.50;2.70;;;;;;;29.54;40.91;98725.64;105056;1274;75506;-24
2022/08/19 10:05:53;;;;;;;5.20;2.30;;;;;;;29.74;40.49;98722.77;104998;1274;61896;-24
2022/08/19 10:08:23;;;;;;;8.50;2.60;;;;;;;29.08;41.33;98724.05;104794;1272;62812;-24
2022/08/19 10:10:52;;;;;;;6.80;2.70;;;;;;;29.44;42.03;98721.54;104754;1272;76317;-23
2022/08/19 10:13:22;;;;;;;10.80;5.00;;;;;;;29.54;40.40;98720.33;104831;1271;76468;-23
2022/08/19 10:15:52;;;;;;;9.90;4.40;;;;;;;29.64;39.44;98716.52;104588;1274;75265;-23
2022/08/19 10:18:21;;;;;;;8.70;5.30;;;;;;;28.52;40.75;98721.95;104672;1271;62068;-23
2022/08/19 10:20:49;;;;;;;9.90;5.30;;;;;;;28.54;41.28;98726.09;104820;1271;62983;-24
2022/08/19 10:23:19;;;;;;;6.90;2.70;;;;;;;28.71;41.89;98730.71;104995;1273;76663;-24
2022/08/19 10:25:47;;;;;;;8.70;3.50;;;;;;;29.97;38.93;98723.81;104667;1272;77132;-23
2022/08/19 10:28:15;;;;;;;8.00;2.60;;;;;;;30.21;38.87;98723.89;104471;1274;75471;-23
2022/08/19 10:30:45;;;;;;;18.50;10.50;;;;;;;30.56;38.26;98726.20;104799;1272;62789;-23
2022/08/19 10:33:13;;;;;;;8.80;2.90;;;;;;;29.61;37.21;98726.98;104598;1275;63207;-24
2022/08/19 10:36:05;;;;;;;7.60;2.20;;;;;;;29.56;38.58;98727.31;104685;1274;74803;-23
2022/08/19 10:38:34;;;;;;;5.20;2.50;;;;;;;29.53;38.82;98725.10;104679;1271;75999;-23
2022/08/19 10:41:17;;;;;;;9.40;5.50;;;;;;;29.85;39.58;98721.31;104789;1274;75508;-23
2022/08/19 10:43:44;;;;;;;11.50;5.70;;;;;;;30.04;37.98;98716.34;104762;1274;61087;-24
2022/08/19 10:46:13;;;;;;;8.60;3.00;;;;;;;29.07;39.67;98718.63;104916;1271;62104;-23
2022/08/19 10:48:43;;;;;;;8.50;2.30;;;;;;;29.69;39.84;98714.73;104562;1274;75368;-23
2022/08/19 10:53:56;;;;;;;10.00;3.90;;;;;;;30.96;37.84;98715.32;105056;1274;74359;-23
2022/08/19 10:59:09;;;;;;;5.40;3.10;;;;;;;30.53;40.01;98728.39;104719;1274;63009;-22
2022/08/19 11:01:37;;;;;;;3.60;2.10;;;;;;;30.07;38.01;98733.59;103348;1277;1811885;-23
2022/08/19 11:04:04;;;;;;;11.50;6.30;;;;;;;30.23;37.68;98736.12;104549;1274;76008;-22
2022/08/19 11:06:31;;;;;;;7.30;5.30;;;;;;;29.61;37.42;98739.55;104595;1274;76125;-23
2022/08/19 11:08:59;;;;;;;7.00;4.10;;;;;;;29.27;38.06;98738.63;104607;1275;61933;-23
2022/08/19 11:11:28;;;;;;;9.00;2.60;;;;;;;30.23;37.37;98738.16;104651;1272;62024;-22
2022/08/19 11:13:55;;;;;;;7.50;2.80;;;;;;;31.06;37.63;98729.84;104611;1274;76604;-23
2022/08/19 11:16:23;;;;;;;5.80;2.20;;;;;;;31.60;36.07;98728.91;104670;1274;76969;-23
2022/08/19 11:18:52;;;;;;;16.00;7.60;;;;;;;30.11;37.20;98732.20;104508;1272;74174;-23
2022/08/19 11:21:22;;;;;;;9.10;2.80;;;;;;;30.12;38.03;98732.95;104357;1274;63305;-23
2022/08/19 11:23:52;;;;;;;9.80;2.40;;;;;;;30.96;36.35;98733.00;104360;1274;62826;-23
2022/08/19 11:26:19;;;;;;;9.00;2.80;;;;;;;30.95;36.24;98731.77;104567;1275;76610;-23
2022/08/19 11:28:47;;;;;;;18.70;9.60;;;;;;;30.23;37.23;98728.48;104611;1274;76573;-23
2022/08/19 11:31:16;;;;;;;19.10;11.40;;;;;;;29.13;39.00;98730.36;104619;1274;75258;-24
2022/08/19 11:33:44;;;;;;;17.20;9.70;;;;;;;28.94;39.84;98728.63;104675;1277;62187;-24
2022/08/19 11:36:14;;;;;;;6.90;4.10;;;;;;;29.41;40.25;98730.06;104623;1274;61654;-23
2022/08/19 11:38:42;;;;;;;10.20;3.70;;;;;;;29.73;39.25;98727.38;104921;1274;75387;-23
2022/08/19 11:41:09;;;;;;;6.20;2.80;;;;;;;30.04;38.21;98719.44;104779;1274;75995;-23
2022/08/19 11:43:36;;;;;;;9.80;2.10;;;;;;;30.79;39.09;98715.99;105044;1274;74062;-23
2022/08/19 11:46:07;;;;;;;5.30;3.20;;;;;;;31.11;37.78;98716.78;104810;1271;63077;-23
2022/08/19 11:48:35;;;;;;;6.10;2.30;;;;;;;30.54;38.23;98713.25;104712;1274;61768;-24